Airfield :
LOGIN :

Register | Disclaimer

   EN    FR    IT 

 










Legend :    VFR   Marginal VFR   IFR   Intensive IFR   Very Intensive IFR
Visi :
Ceiling :
>= 8 km
>= 3000ft
5 to 8 km
1000 to 3000 ft
1500m to 5 km
500 to 1000 ft
800 to 1500m
200 to 500 ft
< 800m
< 200 ft
Symbols :   Thunderstorms  Fog  Heavy snow  Heavy precipitations  Wind > 20 kt
SIGMETs :     Misc.  Thunderstorms  Icing  Turbulence  Mountain Waves  Volcanic Ashes






- Airport Elevation : 302 ft
- IATA code : MAH


LEMH - Menorca

CURRENT METAR :
  • 161800Z 20009KT 160V230 9999 FEW016 BKN018 14/11 Q1027

EXPIRED METARs :
  • 161730Z 20010KT 170V250 9999 FEW012 BKN018 14/10 Q1027
  • 161700Z 20008KT 170V230 9999 FEW013 BKN018 14/11 Q1027
  • 161630Z 20009KT 170V240 9999 BKN020 14/11 Q1027
  • 161600Z 21010KT 180V240 9999 FEW019 SCT021 14/10 Q1027
  • 161530Z 21009KT 170V240 9999 BKN021 15/10 Q1027

TAF TAF LEMH
Valid from the 16 at 15:00 until the 17 at 15:00 UTC


161400Z 1615/1715 20008KT 9999 FEW015 TX18/1712Z TN11/1706Z
PROB40
TEMPO 1615/1618 BKN010



MET'MAP, your aeronautical weather chart ! - Copyright ORBIFLY December 2007 - Disclaimer

ORBIFLY MET'MAP TEAM :

Programming & Development : Alexandra Zaïnal
Concept & original design : Baudouin d'Aumeries
Assistance for programming : Marc-Olivier Méhu
Technical & hardware support : Manuel Goepfert

Contact : metmap@orbifly.com




SOURCES & CREDITS :

   NOAA